sensor_id;sensor_type;location;lat;lon;timestamp;P1;durP1;ratioP1;P2;durP2;ratioP2
78916;SDS011;68315;48.608;11.436;2023-05-10T00:00:34;3.45;;;2.33;;
78916;SDS011;68315;48.608;11.436;2023-05-10T00:03:00;2.35;;;2.05;;
78916;SDS011;68315;48.608;11.436;2023-05-10T00:05:25;2.15;;;1.90;;
78916;SDS011;68315;48.608;11.436;2023-05-10T00:07:50;3.50;;;2.20;;
78916;SDS011;68315;48.608;11.436;2023-05-10T00:10:15;2.08;;;1.80;;
78916;SDS011;68315;48.608;11.436;2023-05-10T00:12:41;1.92;;;1.83;;
78916;SDS011;68315;48.608;11.436;2023-05-10T00:15:06;2.88;;;2.10;;
78916;SDS011;68315;48.608;11.436;2023-05-10T00:17:32;2.90;;;1.73;;
78916;SDS011;68315;48.608;11.436;2023-05-10T00:19:58;2.25;;;1.65;;
78916;SDS011;68315;48.608;11.436;2023-05-10T00:22:23;1.73;;;1.23;;
78916;SDS011;68315;48.608;11.436;2023-05-10T00:24:48;2.60;;;1.73;;
78916;SDS011;68315;48.608;11.436;2023-05-10T00:27:13;2.13;;;1.77;;
78916;SDS011;68315;48.608;11.436;2023-05-10T00:29:39;2.55;;;1.48;;
78916;SDS011;68315;48.608;11.436;2023-05-10T00:32:04;1.85;;;1.40;;
78916;SDS011;68315;48.608;11.436;2023-05-10T00:34:29;1.80;;;1.60;;
78916;SDS011;68315;48.608;11.436;2023-05-10T00:36:55;2.55;;;1.80;;
78916;SDS011;68315;48.608;11.436;2023-05-10T00:39:21;1.70;;;1.60;;
78916;SDS011;68315;48.608;11.436;2023-05-10T00:41:46;3.20;;;1.80;;
78916;SDS011;68315;48.608;11.436;2023-05-10T00:44:11;1.73;;;1.63;;
78916;SDS011;68315;48.608;11.436;2023-05-10T00:46:37;2.95;;;1.85;;
78916;SDS011;68315;48.608;11.436;2023-05-10T00:49:02;2.92;;;1.70;;
78916;SDS011;68315;48.608;11.436;2023-05-10T00:51:27;1.95;;;1.83;;
78916;SDS011;68315;48.608;11.436;2023-05-10T00:53:53;2.10;;;2.00;;
78916;SDS011;68315;48.608;11.436;2023-05-10T00:56:19;2.15;;;1.95;;
78916;SDS011;68315;48.608;11.436;2023-05-10T00:58:47;2.72;;;1.98;;
78916;SDS011;68315;48.608;11.436;2023-05-10T01:01:13;2.65;;;2.10;;
78916;SDS011;68315;48.608;11.436;2023-05-10T01:03:38;3.17;;;1.98;;
78916;SDS011;68315;48.608;11.436;2023-05-10T01:06:04;2.50;;;1.90;;
78916;SDS011;68315;48.608;11.436;2023-05-10T01:08:30;1.95;;;1.85;;
78916;SDS011;68315;48.608;11.436;2023-05-10T01:10:55;2.22;;;2.03;;
78916;SDS011;68315;48.608;11.436;2023-05-10T01:13:30;2.00;;;1.90;;
78916;SDS011;68315;48.608;11.436;2023-05-10T01:16:03;4.13;;;2.25;;
78916;SDS011;68315;48.608;11.436;2023-05-10T01:18:30;2.22;;;1.98;;
78916;SDS011;68315;48.608;11.436;2023-05-10T01:21:13;3.25;;;2.42;;
78916;SDS011;68315;48.608;11.436;2023-05-10T01:23:45;5.18;;;2.10;;
78916;SDS011;68315;48.608;11.436;2023-05-10T01:26:52;2.10;;;1.90;;
78916;SDS011;68315;48.608;11.436;2023-05-10T01:29:49;4.18;;;2.20;;
78916;SDS011;68315;48.608;11.436;2023-05-10T01:32:21;2.47;;;2.28;;
78916;SDS011;68315;48.608;11.436;2023-05-10T01:34:57;2.50;;;2.30;;
78916;SDS011;68315;48.608;11.436;2023-05-10T01:37:31;2.30;;;2.20;;
78916;SDS011;68315;48.608;11.436;2023-05-10T01:40:08;4.45;;;2.47;;
78916;SDS011;68315;48.608;11.436;2023-05-10T01:42:48;2.97;;;2.60;;
78916;SDS011;68315;48.608;11.436;2023-05-10T01:45:19;4.28;;;2.47;;
78916;SDS011;68315;48.608;11.436;2023-05-10T01:48:02;2.88;;;2.55;;
78916;SDS011;68315;48.608;11.436;2023-05-10T01:50:31;2.60;;;2.40;;
78916;SDS011;68315;48.608;11.436;2023-05-10T01:52:59;2.78;;;2.45;;
78916;SDS011;68315;48.608;11.436;2023-05-10T01:55:28;2.60;;;2.40;;
78916;SDS011;68315;48.608;11.436;2023-05-10T01:58:02;2.53;;;2.33;;
78916;SDS011;68315;48.608;11.436;2023-05-10T02:00:30;2.30;;;2.10;;
78916;SDS011;68315;48.608;11.436;2023-05-10T02:02:56;3.75;;;2.13;;
78916;SDS011;68315;48.608;11.436;2023-05-10T02:05:22;2.60;;;2.40;;
78916;SDS011;68315;48.608;11.436;2023-05-10T02:07:49;3.42;;;2.30;;
78916;SDS011;68315;48.608;11.436;2023-05-10T02:10:16;2.67;;;2.47;;
78916;SDS011;68315;48.608;11.436;2023-05-10T02:12:43;2.58;;;2.30;;
78916;SDS011;68315;48.608;11.436;2023-05-10T02:15:12;3.20;;;2.50;;
78916;SDS011;68315;48.608;11.436;2023-05-10T02:17:42;2.35;;;2.15;;
78916;SDS011;68315;48.608;11.436;2023-05-10T02:20:08;2.40;;;2.20;;
78916;SDS011;68315;48.608;11.436;2023-05-10T02:22:35;2.40;;;2.20;;
78916;SDS011;68315;48.608;11.436;2023-05-10T02:25:02;2.88;;;2.22;;
78916;SDS011;68315;48.608;11.436;2023-05-10T02:27:28;2.50;;;2.30;;
78916;SDS011;68315;48.608;11.436;2023-05-10T02:29:54;2.78;;;2.58;;
78916;SDS011;68315;48.608;11.436;2023-05-10T02:32:21;2.97;;;2.20;;
78916;SDS011;68315;48.608;11.436;2023-05-10T02:34:48;3.05;;;2.72;;
78916;SDS011;68315;48.608;11.436;2023-05-10T02:37:17;2.47;;;2.28;;
78916;SDS011;68315;48.608;11.436;2023-05-10T02:39:46;2.20;;;2.00;;
78916;SDS011;68315;48.608;11.436;2023-05-10T02:42:13;2.00;;;1.85;;
78916;SDS011;68315;48.608;11.436;2023-05-10T02:44:42;2.22;;;2.03;;
78916;SDS011;68315;48.608;11.436;2023-05-10T02:47:09;1.80;;;1.70;;
78916;SDS011;68315;48.608;11.436;2023-05-10T02:49:34;3.15;;;1.77;;
78916;SDS011;68315;48.608;11.436;2023-05-10T02:52:00;1.83;;;1.50;;
78916;SDS011;68315;48.608;11.436;2023-05-10T02:54:30;1.40;;;1.30;;
78916;SDS011;68315;48.608;11.436;2023-05-10T02:56:58;1.38;;;1.27;;
78916;SDS011;68315;48.608;11.436;2023-05-10T02:59:25;1.40;;;1.17;;
78916;SDS011;68315;48.608;11.436;2023-05-10T03:01:51;1.45;;;1.35;;
78916;SDS011;68315;48.608;11.436;2023-05-10T03:04:16;2.42;;;1.40;;
78916;SDS011;68315;48.608;11.436;2023-05-10T03:06:42;1.30;;;1.20;;
78916;SDS011;68315;48.608;11.436;2023-05-10T03:09:07;1.33;;;1.23;;
78916;SDS011;68315;48.608;11.436;2023-05-10T03:11:47;1.52;;;1.20;;
78916;SDS011;68315;48.608;11.436;2023-05-10T03:14:25;2.17;;;1.58;;
78916;SDS011;68315;48.608;11.436;2023-05-10T03:17:11;1.40;;;1.30;;
78916;SDS011;68315;48.608;11.436;2023-05-10T03:19:56;1.73;;;1.35;;
78916;SDS011;68315;48.608;11.436;2023-05-10T03:22:29;1.58;;;1.48;;
78916;SDS011;68315;48.608;11.436;2023-05-10T03:24:57;1.98;;;1.83;;
78916;SDS011;68315;48.608;11.436;2023-05-10T03:27:23;2.05;;;1.80;;
78916;SDS011;68315;48.608;11.436;2023-05-10T03:29:51;2.05;;;1.85;;
78916;SDS011;68315;48.608;11.436;2023-05-10T03:32:18;1.95;;;1.70;;
78916;SDS011;68315;48.608;11.436;2023-05-10T03:34:43;2.30;;;2.10;;
78916;SDS011;68315;48.608;11.436;2023-05-10T03:37:09;2.50;;;2.30;;
78916;SDS011;68315;48.608;11.436;2023-05-10T03:39:34;2.63;;;2.00;;
78916;SDS011;68315;48.608;11.436;2023-05-10T03:41:59;1.92;;;1.80;;
78916;SDS011;68315;48.608;11.436;2023-05-10T03:44:25;4.88;;;2.15;;
78916;SDS011;68315;48.608;11.436;2023-05-10T03:46:50;3.65;;;2.38;;
78916;SDS011;68315;48.608;11.436;2023-05-10T03:49:16;2.15;;;1.80;;
78916;SDS011;68315;48.608;11.436;2023-05-10T03:51:41;2.25;;;1.75;;
78916;SDS011;68315;48.608;11.436;2023-05-10T03:54:06;2.28;;;1.80;;
78916;SDS011;68315;48.608;11.436;2023-05-10T03:56:32;2.20;;;2.00;;
78916;SDS011;68315;48.608;11.436;2023-05-10T03:58:57;3.35;;;1.80;;
78916;SDS011;68315;48.608;11.436;2023-05-10T04:01:22;2.38;;;2.17;;
78916;SDS011;68315;48.608;11.436;2023-05-10T04:03:51;2.50;;;1.77;;
78916;SDS011;68315;48.608;11.436;2023-05-10T04:06:16;1.73;;;1.63;;
78916;SDS011;68315;48.608;11.436;2023-05-10T04:08:41;2.03;;;1.83;;
78916;SDS011;68315;48.608;11.436;2023-05-10T04:11:07;3.58;;;2.28;;
78916;SDS011;68315;48.608;11.436;2023-05-10T04:13:34;3.78;;;1.90;;
78916;SDS011;68315;48.608;11.436;2023-05-10T04:15:59;1.90;;;1.80;;
78916;SDS011;68315;48.608;11.436;2023-05-10T04:18:25;2.15;;;1.80;;
78916;SDS011;68315;48.608;11.436;2023-05-10T04:20:50;1.70;;;1.60;;
78916;SDS011;68315;48.608;11.436;2023-05-10T04:23:15;1.38;;;1.27;;
78916;SDS011;68315;48.608;11.436;2023-05-10T04:25:41;1.80;;;1.40;;
78916;SDS011;68315;48.608;11.436;2023-05-10T04:28:07;1.50;;;1.40;;
78916;SDS011;68315;48.608;11.436;2023-05-10T04:30:32;1.63;;;1.17;;
78916;SDS011;68315;48.608;11.436;2023-05-10T04:33:03;1.55;;;1.05;;
78916;SDS011;68315;48.608;11.436;2023-05-10T04:35:29;1.55;;;0.80;;
78916;SDS011;68315;48.608;11.436;2023-05-10T04:37:54;0.88;;;0.80;;
78916;SDS011;68315;48.608;11.436;2023-05-10T04:40:19;0.93;;;0.90;;
78916;SDS011;68315;48.608;11.436;2023-05-10T04:42:45;1.10;;;0.80;;
78916;SDS011;68315;48.608;11.436;2023-05-10T04:45:11;0.65;;;0.65;;
78916;SDS011;68315;48.608;11.436;2023-05-10T04:47:36;0.95;;;0.60;;
78916;SDS011;68315;48.608;11.436;2023-05-10T04:50:04;0.60;;;0.55;;
78916;SDS011;68315;48.608;11.436;2023-05-10T04:52:30;2.88;;;0.80;;
78916;SDS011;68315;48.608;11.436;2023-05-10T04:54:55;1.90;;;0.70;;
78916;SDS011;68315;48.608;11.436;2023-05-10T04:57:21;0.95;;;0.60;;
78916;SDS011;68315;48.608;11.436;2023-05-10T04:59:46;0.75;;;0.60;;
78916;SDS011;68315;48.608;11.436;2023-05-10T05:02:12;0.68;;;0.60;;
78916;SDS011;68315;48.608;11.436;2023-05-10T05:04:38;0.63;;;0.47;;
78916;SDS011;68315;48.608;11.436;2023-05-10T05:07:03;0.65;;;0.50;;
78916;SDS011;68315;48.608;11.436;2023-05-10T05:09:28;0.57;;;0.52;;
78916;SDS011;68315;48.608;11.436;2023-05-10T05:11:53;0.85;;;0.60;;
78916;SDS011;68315;48.608;11.436;2023-05-10T05:14:19;0.55;;;0.55;;
78916;SDS011;68315;48.608;11.436;2023-05-10T05:16:45;0.63;;;0.43;;
78916;SDS011;68315;48.608;11.436;2023-05-10T05:19:11;0.70;;;0.50;;
78916;SDS011;68315;48.608;11.436;2023-05-10T05:21:36;0.68;;;0.50;;
78916;SDS011;68315;48.608;11.436;2023-05-10T05:24:01;0.40;;;0.40;;
78916;SDS011;68315;48.608;11.436;2023-05-10T05:26:27;0.80;;;0.50;;
78916;SDS011;68315;48.608;11.436;2023-05-10T05:28:52;0.50;;;0.50;;
78916;SDS011;68315;48.608;11.436;2023-05-10T05:31:19;1.15;;;0.40;;
78916;SDS011;68315;48.608;11.436;2023-05-10T05:33:44;0.88;;;0.60;;
78916;SDS011;68315;48.608;11.436;2023-05-10T05:36:10;1.10;;;0.70;;
78916;SDS011;68315;48.608;11.436;2023-05-10T05:38:35;0.68;;;0.60;;
78916;SDS011;68315;48.608;11.436;2023-05-10T05:41:01;2.35;;;0.73;;
78916;SDS011;68315;48.608;11.436;2023-05-10T05:43:26;0.90;;;0.60;;
78916;SDS011;68315;48.608;11.436;2023-05-10T05:45:51;2.15;;;0.90;;
78916;SDS011;68315;48.608;11.436;2023-05-10T05:48:18;0.68;;;0.68;;
78916;SDS011;68315;48.608;11.436;2023-05-10T05:50:43;1.27;;;0.85;;
78916;SDS011;68315;48.608;11.436;2023-05-10T05:53:08;0.68;;;0.68;;
78916;SDS011;68315;48.608;11.436;2023-05-10T05:55:34;1.15;;;1.02;;
78916;SDS011;68315;48.608;11.436;2023-05-10T05:57:59;1.10;;;0.80;;
78916;SDS011;68315;48.608;11.436;2023-05-10T06:00:24;1.95;;;0.82;;
78916;SDS011;68315;48.608;11.436;2023-05-10T06:02:50;1.05;;;1.00;;
78916;SDS011;68315;48.608;11.436;2023-05-10T06:05:16;2.38;;;0.93;;
78916;SDS011;68315;48.608;11.436;2023-05-10T06:07:41;0.90;;;0.90;;
78916;SDS011;68315;48.608;11.436;2023-05-10T06:10:07;2.00;;;1.05;;
78916;SDS011;68315;48.608;11.436;2023-05-10T06:12:33;1.25;;;0.98;;
78916;SDS011;68315;48.608;11.436;2023-05-10T06:14:58;0.80;;;0.80;;
78916;SDS011;68315;48.608;11.436;2023-05-10T06:17:24;0.98;;;0.88;;
78916;SDS011;68315;48.608;11.436;2023-05-10T06:19:50;1.33;;;0.98;;
78916;SDS011;68315;48.608;11.436;2023-05-10T06:22:15;1.25;;;1.08;;
78916;SDS011;68315;48.608;11.436;2023-05-10T06:24:40;1.80;;;1.00;;
78916;SDS011;68315;48.608;11.436;2023-05-10T06:27:06;1.10;;;1.10;;
78916;SDS011;68315;48.608;11.436;2023-05-10T06:29:31;0.70;;;0.70;;
78916;SDS011;68315;48.608;11.436;2023-05-10T06:31:57;1.70;;;0.80;;
78916;SDS011;68315;48.608;11.436;2023-05-10T06:34:22;1.00;;;1.00;;
78916;SDS011;68315;48.608;11.436;2023-05-10T06:36:47;0.90;;;0.90;;
78916;SDS011;68315;48.608;11.436;2023-05-10T06:39:13;1.20;;;1.10;;
78916;SDS011;68315;48.608;11.436;2023-05-10T06:41:38;0.82;;;0.82;;
78916;SDS011;68315;48.608;11.436;2023-05-10T06:44:03;1.25;;;1.13;;
78916;SDS011;68315;48.608;11.436;2023-05-10T06:46:29;1.20;;;1.10;;
78916;SDS011;68315;48.608;11.436;2023-05-10T06:48:54;2.42;;;1.60;;
78916;SDS011;68315;48.608;11.436;2023-05-10T06:51:19;2.50;;;1.50;;
78916;SDS011;68315;48.608;11.436;2023-05-10T06:53:46;1.60;;;1.50;;
78916;SDS011;68315;48.608;11.436;2023-05-10T06:56:12;1.55;;;1.45;;
78916;SDS011;68315;48.608;11.436;2023-05-10T06:58:37;1.50;;;1.40;;
78916;SDS011;68315;48.608;11.436;2023-05-10T07:01:03;1.50;;;1.40;;
78916;SDS011;68315;48.608;11.436;2023-05-10T07:03:29;1.77;;;1.67;;
78916;SDS011;68315;48.608;11.436;2023-05-10T07:05:59;1.90;;;1.70;;
78916;SDS011;68315;48.608;11.436;2023-05-10T07:08:28;1.58;;;1.48;;
78916;SDS011;68315;48.608;11.436;2023-05-10T07:10:53;1.73;;;1.63;;
78916;SDS011;68315;48.608;11.436;2023-05-10T07:13:28;2.38;;;1.65;;
78916;SDS011;68315;48.608;11.436;2023-05-10T07:15:55;1.35;;;1.25;;
78916;SDS011;68315;48.608;11.436;2023-05-10T07:18:20;1.83;;;1.73;;
78916;SDS011;68315;48.608;11.436;2023-05-10T07:20:45;1.90;;;1.70;;
78916;SDS011;68315;48.608;11.436;2023-05-10T07:23:10;2.10;;;1.92;;
78916;SDS011;68315;48.608;11.436;2023-05-10T07:25:36;1.83;;;1.73;;
78916;SDS011;68315;48.608;11.436;2023-05-10T07:28:01;1.60;;;1.50;;
78916;SDS011;68315;48.608;11.436;2023-05-10T07:30:26;2.13;;;1.52;;
78916;SDS011;68315;48.608;11.436;2023-05-10T07:32:52;2.00;;;1.88;;
78916;SDS011;68315;48.608;11.436;2023-05-10T07:35:17;1.45;;;1.20;;
78916;SDS011;68315;48.608;11.436;2023-05-10T07:37:42;2.03;;;1.80;;
78916;SDS011;68315;48.608;11.436;2023-05-10T07:40:08;2.25;;;1.80;;
78916;SDS011;68315;48.608;11.436;2023-05-10T07:42:33;2.33;;;1.63;;
78916;SDS011;68315;48.608;11.436;2023-05-10T07:44:59;1.70;;;1.60;;
78916;SDS011;68315;48.608;11.436;2023-05-10T07:47:24;2.60;;;1.75;;
78916;SDS011;68315;48.608;11.436;2023-05-10T07:49:49;2.30;;;2.10;;
78916;SDS011;68315;48.608;11.436;2023-05-10T07:52:14;2.60;;;1.83;;
78916;SDS011;68315;48.608;11.436;2023-05-10T07:54:40;2.38;;;1.83;;
78916;SDS011;68315;48.608;11.436;2023-05-10T07:57:05;2.92;;;1.60;;
78916;SDS011;68315;48.608;11.436;2023-05-10T07:59:31;2.05;;;1.80;;
78916;SDS011;68315;48.608;11.436;2023-05-10T08:01:57;1.80;;;1.52;;
78916;SDS011;68315;48.608;11.436;2023-05-10T08:04:22;1.80;;;1.63;;
78916;SDS011;68315;48.608;11.436;2023-05-10T08:06:47;1.73;;;1.63;;
78916;SDS011;68315;48.608;11.436;2023-05-10T08:09:12;2.95;;;1.83;;
78916;SDS011;68315;48.608;11.436;2023-05-10T08:11:38;2.58;;;1.70;;
78916;SDS011;68315;48.608;11.436;2023-05-10T08:14:03;1.95;;;1.83;;
78916;SDS011;68315;48.608;11.436;2023-05-10T08:16:28;1.55;;;1.45;;
78916;SDS011;68315;48.608;11.436;2023-05-10T08:18:54;2.47;;;1.67;;
78916;SDS011;68315;48.608;11.436;2023-05-10T08:21:20;1.65;;;1.42;;
78916;SDS011;68315;48.608;11.436;2023-05-10T08:23:45;2.75;;;1.38;;
78916;SDS011;68315;48.608;11.436;2023-05-10T08:26:11;1.48;;;1.38;;
78916;SDS011;68315;48.608;11.436;2023-05-10T08:28:36;1.45;;;1.35;;
78916;SDS011;68315;48.608;11.436;2023-05-10T08:31:01;1.58;;;1.45;;
78916;SDS011;68315;48.608;11.436;2023-05-10T08:33:27;1.98;;;1.25;;
78916;SDS011;68315;48.608;11.436;2023-05-10T08:35:52;1.40;;;1.10;;
78916;SDS011;68315;48.608;11.436;2023-05-10T08:38:17;2.33;;;1.70;;
78916;SDS011;68315;48.608;11.436;2023-05-10T08:40:44;2.03;;;1.60;;
78916;SDS011;68315;48.608;11.436;2023-05-10T08:43:11;2.47;;;1.67;;
78916;SDS011;68315;48.608;11.436;2023-05-10T08:45:38;1.67;;;1.58;;
78916;SDS011;68315;48.608;11.436;2023-05-10T08:48:05;2.90;;;2.00;;
78916;SDS011;68315;48.608;11.436;2023-05-10T08:50:32;2.58;;;1.80;;
78916;SDS011;68315;48.608;11.436;2023-05-10T08:53:00;2.25;;;1.65;;
78916;SDS011;68315;48.608;11.436;2023-05-10T08:55:29;2.08;;;1.70;;
78916;SDS011;68315;48.608;11.436;2023-05-10T08:57:55;2.22;;;1.70;;
78916;SDS011;68315;48.608;11.436;2023-05-10T09:00:21;3.15;;;1.80;;
78916;SDS011;68315;48.608;11.436;2023-05-10T09:02:48;2.28;;;1.98;;
78916;SDS011;68315;48.608;11.436;2023-05-10T09:05:15;2.80;;;1.58;;
78916;SDS011;68315;48.608;11.436;2023-05-10T09:07:41;2.40;;;1.40;;
78916;SDS011;68315;48.608;11.436;2023-05-10T09:10:07;1.50;;;1.40;;
78916;SDS011;68315;48.608;11.436;2023-05-10T09:12:33;1.92;;;1.50;;
78916;SDS011;68315;48.608;11.436;2023-05-10T09:14:59;2.97;;;1.80;;
78916;SDS011;68315;48.608;11.436;2023-05-10T09:17:25;1.88;;;1.77;;
78916;SDS011;68315;48.608;11.436;2023-05-10T09:20:00;1.70;;;1.60;;
78916;SDS011;68315;48.608;11.436;2023-05-10T09:22:27;2.08;;;1.50;;
78916;SDS011;68315;48.608;11.436;2023-05-10T09:25:08;2.20;;;2.00;;
78916;SDS011;68315;48.608;11.436;2023-05-10T09:27:35;1.48;;;1.38;;
78916;SDS011;68315;48.608;11.436;2023-05-10T09:30:01;3.85;;;1.80;;
78916;SDS011;68315;48.608;11.436;2023-05-10T09:32:36;2.28;;;1.38;;
78916;SDS011;68315;48.608;11.436;2023-05-10T09:35:09;2.88;;;1.42;;
78916;SDS011;68315;48.608;11.436;2023-05-10T09:37:36;5.07;;;1.48;;
78916;SDS011;68315;48.608;11.436;2023-05-10T09:40:03;1.42;;;1.20;;
78916;SDS011;68315;48.608;11.436;2023-05-10T09:42:29;1.60;;;1.50;;
78916;SDS011;68315;48.608;11.436;2023-05-10T09:44:59;1.65;;;1.40;;
78916;SDS011;68315;48.608;11.436;2023-05-10T09:47:25;1.42;;;1.33;;
78916;SDS011;68315;48.608;11.436;2023-05-10T09:49:52;2.03;;;1.80;;
78916;SDS011;68315;48.608;11.436;2023-05-10T09:52:18;1.70;;;1.60;;
78916;SDS011;68315;48.608;11.436;2023-05-10T09:54:52;1.40;;;1.30;;
78916;SDS011;68315;48.608;11.436;2023-05-10T09:57:22;1.40;;;1.30;;
78916;SDS011;68315;48.608;11.436;2023-05-10T09:59:48;1.80;;;1.40;;
78916;SDS011;68315;48.608;11.436;2023-05-10T10:02:15;1.83;;;1.48;;
78916;SDS011;68315;48.608;11.436;2023-05-10T10:04:41;1.40;;;1.20;;
78916;SDS011;68315;48.608;11.436;2023-05-10T10:07:06;1.73;;;1.63;;
78916;SDS011;68315;48.608;11.436;2023-05-10T10:09:32;1.10;;;1.00;;
78916;SDS011;68315;48.608;11.436;2023-05-10T10:11:59;1.08;;;1.00;;
78916;SDS011;68315;48.608;11.436;2023-05-10T10:14:25;2.30;;;1.00;;
78916;SDS011;68315;48.608;11.436;2023-05-10T10:16:51;2.05;;;0.90;;
78916;SDS011;68315;48.608;11.436;2023-05-10T10:19:17;2.42;;;1.00;;
78916;SDS011;68315;48.608;11.436;2023-05-10T10:21:44;3.03;;;1.50;;
78916;SDS011;68315;48.608;11.436;2023-05-10T10:24:09;3.00;;;1.00;;
78916;SDS011;68315;48.608;11.436;2023-05-10T10:26:35;1.83;;;1.00;;
78916;SDS011;68315;48.608;11.436;2023-05-10T10:31:48;1.95;;;0.90;;
78916;SDS011;68315;48.608;11.436;2023-05-10T10:34:27;1.15;;;1.05;;
78916;SDS011;68315;48.608;11.436;2023-05-10T10:36:54;1.85;;;1.00;;
78916;SDS011;68315;48.608;11.436;2023-05-10T10:39:21;1.27;;;0.90;;
78916;SDS011;68315;48.608;11.436;2023-05-10T10:47:00;1.25;;;1.15;;
78916;SDS011;68315;48.608;11.436;2023-05-10T10:49:27;1.38;;;1.05;;
78916;SDS011;68315;48.608;11.436;2023-05-10T10:54:59;3.40;;;1.42;;
78916;SDS011;68315;48.608;11.436;2023-05-10T10:57:26;1.60;;;0.95;;
78916;SDS011;68315;48.608;11.436;2023-05-10T11:02:59;1.88;;;1.30;;
78916;SDS011;68315;48.608;11.436;2023-05-10T11:05:39;2.45;;;1.10;;
78916;SDS011;68315;48.608;11.436;2023-05-10T11:08:16;1.20;;;1.08;;
78916;SDS011;68315;48.608;11.436;2023-05-10T11:13:37;2.75;;;1.00;;
78916;SDS011;68315;48.608;11.436;2023-05-10T11:16:16;1.10;;;1.00;;
78916;SDS011;68315;48.608;11.436;2023-05-10T11:19:06;2.08;;;1.10;;
78916;SDS011;68315;48.608;11.436;2023-05-10T11:21:33;2.80;;;1.00;;
78916;SDS011;68315;48.608;11.436;2023-05-10T11:24:00;1.73;;;1.00;;
78916;SDS011;68315;48.608;11.436;2023-05-10T11:26:31;3.42;;;1.35;;
78916;SDS011;68315;48.608;11.436;2023-05-10T11:28:58;1.52;;;1.02;;
78916;SDS011;68315;48.608;11.436;2023-05-10T11:31:25;1.48;;;1.25;;
78916;SDS011;68315;48.608;11.436;2023-05-10T11:33:55;1.50;;;1.10;;
78916;SDS011;68315;48.608;11.436;2023-05-10T11:36:29;1.55;;;0.90;;
78916;SDS011;68315;48.608;11.436;2023-05-10T11:38:58;1.15;;;1.05;;
78916;SDS011;68315;48.608;11.436;2023-05-10T11:41:24;2.05;;;1.17;;
78916;SDS011;68315;48.608;11.436;2023-05-10T11:43:54;1.40;;;0.90;;
78916;SDS011;68315;48.608;11.436;2023-05-10T11:46:21;3.95;;;1.00;;
78916;SDS011;68315;48.608;11.436;2023-05-10T11:48:51;1.98;;;0.80;;
78916;SDS011;68315;48.608;11.436;2023-05-10T11:51:29;1.33;;;0.80;;
78916;SDS011;68315;48.608;11.436;2023-05-10T11:53:55;1.40;;;0.90;;
78916;SDS011;68315;48.608;11.436;2023-05-10T11:56:21;0.57;;;0.57;;
78916;SDS011;68315;48.608;11.436;2023-05-10T11:58:54;0.40;;;0.40;;
78916;SDS011;68315;48.608;11.436;2023-05-10T12:01:21;2.35;;;0.60;;
78916;SDS011;68315;48.608;11.436;2023-05-10T12:03:48;1.90;;;0.50;;
78916;SDS011;68315;48.608;11.436;2023-05-10T12:06:14;0.80;;;0.50;;
78916;SDS011;68315;48.608;11.436;2023-05-10T12:08:43;0.90;;;0.68;;
78916;SDS011;68315;48.608;11.436;2023-05-10T12:11:10;3.00;;;0.60;;
78916;SDS011;68315;48.608;11.436;2023-05-10T12:13:37;0.40;;;0.40;;
78916;SDS011;68315;48.608;11.436;2023-05-10T12:16:16;0.50;;;0.50;;
78916;SDS011;68315;48.608;11.436;2023-05-10T12:18:44;1.85;;;0.68;;
78916;SDS011;68315;48.608;11.436;2023-05-10T12:21:10;0.63;;;0.63;;
78916;SDS011;68315;48.608;11.436;2023-05-10T12:23:36;0.68;;;0.55;;
78916;SDS011;68315;48.608;11.436;2023-05-10T12:26:03;0.75;;;0.60;;
78916;SDS011;68315;48.608;11.436;2023-05-10T12:28:32;1.85;;;0.60;;
78916;SDS011;68315;48.608;11.436;2023-05-10T12:30:58;0.85;;;0.82;;
78916;SDS011;68315;48.608;11.436;2023-05-10T12:33:24;0.73;;;0.70;;
78916;SDS011;68315;48.608;11.436;2023-05-10T12:35:51;2.88;;;0.80;;
78916;SDS011;68315;48.608;11.436;2023-05-10T12:38:24;1.67;;;0.80;;
78916;SDS011;68315;48.608;11.436;2023-05-10T12:40:52;0.70;;;0.60;;
78916;SDS011;68315;48.608;11.436;2023-05-10T12:43:18;1.67;;;1.02;;
78916;SDS011;68315;48.608;11.436;2023-05-10T12:45:43;1.77;;;1.10;;
78916;SDS011;68315;48.608;11.436;2023-05-10T12:48:12;1.10;;;1.00;;
78916;SDS011;68315;48.608;11.436;2023-05-10T12:50:38;0.90;;;0.80;;
78916;SDS011;68315;48.608;11.436;2023-05-10T12:53:03;1.42;;;1.23;;
78916;SDS011;68315;48.608;11.436;2023-05-10T12:55:28;1.20;;;1.10;;
78916;SDS011;68315;48.608;11.436;2023-05-10T12:57:54;1.60;;;1.10;;
78916;SDS011;68315;48.608;11.436;2023-05-10T13:00:19;1.80;;;1.10;;
78916;SDS011;68315;48.608;11.436;2023-05-10T13:02:44;1.60;;;1.00;;
78916;SDS011;68315;48.608;11.436;2023-05-10T13:05:10;1.30;;;1.00;;
78916;SDS011;68315;48.608;11.436;2023-05-10T13:07:38;2.70;;;1.33;;
78916;SDS011;68315;48.608;11.436;2023-05-10T13:10:03;3.30;;;1.20;;
78916;SDS011;68315;48.608;11.436;2023-05-10T13:12:30;1.52;;;1.35;;
78916;SDS011;68315;48.608;11.436;2023-05-10T13:14:55;3.53;;;1.25;;
78916;SDS011;68315;48.608;11.436;2023-05-10T13:17:20;2.17;;;1.05;;
78916;SDS011;68315;48.608;11.436;2023-05-10T13:19:46;1.10;;;1.00;;
78916;SDS011;68315;48.608;11.436;2023-05-10T13:22:11;1.65;;;1.40;;
78916;SDS011;68315;48.608;11.436;2023-05-10T13:24:36;1.67;;;1.50;;
78916;SDS011;68315;48.608;11.436;2023-05-10T13:27:01;0.55;;;0.55;;
78916;SDS011;68315;48.608;11.436;2023-05-10T13:29:27;1.20;;;0.90;;
78916;SDS011;68315;48.608;11.436;2023-05-10T13:31:52;0.80;;;0.80;;
78916;SDS011;68315;48.608;11.436;2023-05-10T13:34:17;0.88;;;0.60;;
78916;SDS011;68315;48.608;11.436;2023-05-10T13:36:45;2.80;;;0.60;;
78916;SDS011;68315;48.608;11.436;2023-05-10T13:39:11;1.00;;;1.00;;
78916;SDS011;68315;48.608;11.436;2023-05-10T13:41:36;0.82;;;0.80;;
78916;SDS011;68315;48.608;11.436;2023-05-10T13:44:02;1.05;;;0.98;;
78916;SDS011;68315;48.608;11.436;2023-05-10T13:46:27;2.40;;;0.80;;
78916;SDS011;68315;48.608;11.436;2023-05-10T13:48:53;3.08;;;0.93;;
78916;SDS011;68315;48.608;11.436;2023-05-10T13:51:19;1.10;;;1.00;;
78916;SDS011;68315;48.608;11.436;2023-05-10T13:53:44;2.20;;;1.15;;
78916;SDS011;68315;48.608;11.436;2023-05-10T13:56:11;1.25;;;1.13;;
78916;SDS011;68315;48.608;11.436;2023-05-10T13:58:37;1.45;;;1.10;;
78916;SDS011;68315;48.608;11.436;2023-05-10T14:01:02;1.10;;;1.00;;
78916;SDS011;68315;48.608;11.436;2023-05-10T14:03:29;2.08;;;1.10;;
78916;SDS011;68315;48.608;11.436;2023-05-10T14:05:55;1.48;;;1.33;;
78916;SDS011;68315;48.608;11.436;2023-05-10T14:08:20;1.40;;;1.20;;
78916;SDS011;68315;48.608;11.436;2023-05-10T14:10:45;1.52;;;1.42;;
78916;SDS011;68315;48.608;11.436;2023-05-10T14:13:11;2.50;;;1.30;;
78916;SDS011;68315;48.608;11.436;2023-05-10T14:15:37;1.27;;;1.10;;
78916;SDS011;68315;48.608;11.436;2023-05-10T14:18:02;2.15;;;1.55;;
78916;SDS011;68315;48.608;11.436;2023-05-10T14:20:27;3.40;;;1.40;;
78916;SDS011;68315;48.608;11.436;2023-05-10T14:22:53;1.38;;;1.25;;
78916;SDS011;68315;48.608;11.436;2023-05-10T14:25:18;1.40;;;1.05;;
78916;SDS011;68315;48.608;11.436;2023-05-10T14:27:43;1.52;;;1.42;;
78916;SDS011;68315;48.608;11.436;2023-05-10T14:30:09;1.48;;;1.35;;
78916;SDS011;68315;48.608;11.436;2023-05-10T14:32:35;1.52;;;1.40;;
78916;SDS011;68315;48.608;11.436;2023-05-10T14:35:01;1.85;;;1.40;;
78916;SDS011;68315;48.608;11.436;2023-05-10T14:37:27;3.00;;;1.38;;
78916;SDS011;68315;48.608;11.436;2023-05-10T14:39:53;1.58;;;0.95;;
78916;SDS011;68315;48.608;11.436;2023-05-10T14:42:18;1.38;;;0.88;;
78916;SDS011;68315;48.608;11.436;2023-05-10T14:44:44;0.95;;;0.90;;
78916;SDS011;68315;48.608;11.436;2023-05-10T14:47:09;1.02;;;0.90;;
78916;SDS011;68315;48.608;11.436;2023-05-10T14:49:34;1.40;;;0.85;;